createdAt,value
2023-04-29T00:00:51.812Z,95035.50
2023-04-29T00:03:20.219Z,95046.16
2023-04-29T00:05:48.324Z,95032.34
2023-04-29T00:08:17.615Z,95049.34
2023-04-29T00:10:45.612Z,95042.50
2023-04-29T00:13:13.705Z,95037.25
2023-04-29T00:15:42.789Z,95050.91
2023-04-29T00:18:11.059Z,95048.81
2023-04-29T00:20:40.068Z,95057.69
2023-04-29T00:23:07.988Z,95056.09
2023-04-29T00:25:38.930Z,95051.84
2023-04-29T00:28:07.051Z,95045.03
2023-04-29T00:30:35.584Z,95048.19
2023-04-29T00:33:03.669Z,95044.97
2023-04-29T00:35:31.727Z,95042.44
2023-04-29T00:37:59.835Z,95035.25
2023-04-29T00:40:29.203Z,95041.63
2023-04-29T00:42:58.616Z,95051.72
2023-04-29T00:45:27.645Z,95051.97
2023-04-29T00:47:56.125Z,95049.66
2023-04-29T00:50:24.840Z,95051.50
2023-04-29T00:52:53.669Z,95058.31
2023-04-29T00:55:22.026Z,95045.16
2023-04-29T00:57:52.478Z,95028.81
2023-04-29T01:00:21.859Z,95028.97
2023-04-29T01:02:51.048Z,95013.75
2023-04-29T01:05:19.449Z,95012.38
2023-04-29T01:07:57.895Z,95008.91
2023-04-29T01:10:29.852Z,95007.34
2023-04-29T01:13:08.022Z,94987.78
2023-04-29T01:15:45.312Z,94991.59
2023-04-29T01:18:20.522Z,94982.78
2023-04-29T01:20:49.294Z,94979.72
2023-04-29T01:23:17.180Z,94978.59
2023-04-29T01:25:46.476Z,94982.28
2023-04-29T01:28:42.046Z,94970.78
2023-04-29T01:31:16.915Z,94967.09
2023-04-29T01:33:52.379Z,94960.19
2023-04-29T01:36:29.055Z,94950.59
2023-04-29T01:39:04.664Z,94948.63
2023-04-29T01:41:42.981Z,94947.34
2023-04-29T01:44:23.576Z,94941.78
2023-04-29T01:46:54.199Z,94943.38
2023-04-29T01:49:26.162Z,94941.28
2023-04-29T01:51:54.139Z,94935.44
2023-04-29T01:54:22.525Z,94932.25
2023-04-29T01:56:52.116Z,94931.47
2023-04-29T01:59:36.848Z,94930.19
2023-04-29T02:02:23.736Z,94916.44
2023-04-29T02:04:59.548Z,94917.53
2023-04-29T02:07:27.705Z,94920.22
2023-04-29T02:09:57.193Z,94913.56
2023-04-29T02:12:26.572Z,94918.63
2023-04-29T02:14:54.832Z,94914.34
2023-04-29T02:17:22.937Z,94917.59
2023-04-29T02:19:51.138Z,94922.28
2023-04-29T02:22:19.211Z,94925.97
2023-04-29T02:24:47.284Z,94934.94
2023-04-29T02:27:15.213Z,94933.91
2023-04-29T02:29:44.501Z,94928.09
2023-04-29T02:32:15.431Z,94931.22
2023-04-29T02:34:43.403Z,94934.91
2023-04-29T02:37:11.326Z,94932.28
2023-04-29T02:39:41.368Z,94932.31
2023-04-29T02:42:09.346Z,94933.38
2023-04-29T02:44:37.734Z,94939.63
2023-04-29T02:47:07.253Z,94950.78
2023-04-29T02:49:35.867Z,94957.88
2023-04-29T02:52:04.712Z,94972.38
2023-04-29T02:54:32.846Z,94982.41
2023-04-29T02:57:00.887Z,94998.97
2023-04-29T02:59:28.915Z,95008.59
2023-04-29T03:01:57.038Z,95019.59
2023-04-29T03:04:26.669Z,95017.72
2023-04-29T03:06:56.223Z,95027.03
2023-04-29T03:09:26.924Z,95031.78
2023-04-29T03:11:54.869Z,95045.16
2023-04-29T03:14:22.759Z,95044.50
2023-04-29T03:16:51.394Z,95051.34
2023-04-29T03:19:20.097Z,95044.50
2023-04-29T03:21:53.791Z,95048.19
2023-04-29T03:24:22.626Z,95055.72
2023-04-29T03:26:50.570Z,95053.59
2023-04-29T03:29:21.681Z,95051.41
2023-04-29T03:31:49.903Z,95051.94
2023-04-29T03:34:18.077Z,95052.47
2023-04-29T03:36:54.197Z,95048.25
2023-04-29T03:39:23.706Z,95050.88
2023-04-29T03:41:51.842Z,95043.75
2023-04-29T03:44:19.910Z,95057.72
2023-04-29T03:46:47.824Z,95046.66
2023-04-29T03:49:16.073Z,95038.75
2023-04-29T03:51:45.394Z,95041.91
2023-04-29T03:54:17.899Z,95041.91
2023-04-29T03:56:46.074Z,95038.22
2023-04-29T03:59:14.269Z,95034.53
2023-04-29T04:01:43.088Z,95038.22
2023-04-29T04:04:11.263Z,95032.97
2023-04-29T04:06:51.174Z,95027.69
2023-04-29T04:09:22.799Z,95019.25
2023-04-29T04:11:50.933Z,95024.25
2023-04-29T04:14:19.594Z,95028.75
2023-04-29T04:16:47.807Z,95009.78
2023-04-29T04:19:15.881Z,95015.56
2023-04-29T04:21:46.317Z,95015.56
2023-04-29T04:24:14.296Z,95016.09
2023-04-29T04:26:43.606Z,95011.88
2023-04-29T04:29:29.161Z,95013.97
2023-04-29T04:32:00.612Z,95021.88
2023-04-29T04:34:28.733Z,95016.09
2023-04-29T04:36:58.959Z,95018.72
2023-04-29T04:39:26.952Z,95019.25
2023-04-29T04:41:59.132Z,95013.97
2023-04-29T04:44:29.335Z,95020.84
2023-04-29T04:47:02.281Z,95025.31
2023-04-29T04:49:52.963Z,95022.94
2023-04-29T04:52:22.693Z,95023.44
2023-04-29T04:55:01.284Z,95026.31
2023-04-29T04:57:35.575Z,95027.16
2023-04-29T05:00:05.700Z,95016.31
2023-04-29T05:02:34.866Z,95018.19
2023-04-29T05:05:03.078Z,95026.63
2023-04-29T05:07:35.947Z,95025.56
2023-04-29T05:10:08.577Z,95018.72
2023-04-29T05:12:44.599Z,95022.41
2023-04-29T05:15:15.005Z,95024.53
2023-04-29T05:17:44.091Z,95038.22
2023-04-29T05:20:13.058Z,95040.31
2023-04-29T05:22:41.012Z,95037.16
2023-04-29T05:25:09.593Z,95047.16
2023-04-29T05:27:38.328Z,95042.44
2023-04-29T05:30:12.243Z,95048.97
2023-04-29T05:32:40.725Z,95050.31
2023-04-29T05:35:11.363Z,95049.25
2023-04-29T05:37:39.442Z,95042.94
2023-04-29T05:40:19.865Z,95048.19
2023-04-29T05:42:49.259Z,95052.41
2023-04-29T05:45:19.041Z,95054.78
2023-04-29T05:47:47.223Z,95059.25
2023-04-29T05:50:15.671Z,95053.72
2023-04-29T05:52:43.700Z,95051.09
2023-04-29T05:55:11.696Z,95056.63
2023-04-29T05:57:40.199Z,95056.09
2023-04-29T06:00:09.854Z,95060.25
2023-04-29T06:02:57.544Z,95050.50
2023-04-29T06:05:27.791Z,95037.09
2023-04-29T06:08:19.550Z,95047.13
2023-04-29T06:10:52.245Z,95035.06
2023-04-29T06:13:20.628Z,95041.66
2023-04-29T06:15:50.716Z,95038.22
2023-04-29T06:18:21.431Z,95028.75
2023-04-29T06:20:49.387Z,95027.69
2023-04-29T06:23:17.559Z,95023.00
2023-04-29T06:25:46.271Z,95031.94
2023-04-29T06:28:14.244Z,95040.34
2023-04-29T06:30:42.187Z,95030.84
2023-04-29T06:33:10.922Z,95027.69
2023-04-29T06:35:42.090Z,95034.53
2023-04-29T06:38:23.389Z,95038.22
2023-04-29T06:41:18.302Z,95027.97
2023-04-29T06:44:01.449Z,95017.41
2023-04-29T06:46:48.099Z,95026.63
2023-04-29T06:49:27.265Z,95027.16
2023-04-29T06:51:56.676Z,95028.75
2023-04-29T06:54:28.584Z,95039.28
2023-04-29T06:56:56.511Z,95051.41
2023-04-29T06:59:24.404Z,95054.03
2023-04-29T07:01:52.906Z,95037.69
2023-04-29T07:04:21.096Z,95033.47
2023-04-29T07:06:49.242Z,95040.34
2023-04-29T07:09:18.619Z,95044.56
2023-04-29T07:11:46.843Z,95048.84
2023-04-29T07:14:14.771Z,95043.03
2023-04-29T07:16:42.980Z,95052.78
2023-04-29T07:19:11.711Z,95051.47
2023-04-29T07:21:39.761Z,95057.28
2023-04-29T07:24:08.129Z,95053.06
2023-04-29T07:26:37.454Z,95050.44
2023-04-29T07:29:05.447Z,95049.91
2023-04-29T07:31:34.365Z,95054.13
2023-04-29T07:34:04.863Z,95044.13
2023-04-29T07:36:33.164Z,95048.06
2023-04-29T07:39:01.268Z,95048.84
2023-04-29T07:41:29.376Z,95047.53
2023-04-29T07:43:59.004Z,95051.50
2023-04-29T07:46:26.995Z,95031.97
2023-04-29T07:48:54.990Z,95028.56
2023-04-29T07:51:23.047Z,95026.19
2023-04-29T07:53:50.999Z,95028.28
2023-04-29T07:56:20.006Z,95019.31
2023-04-29T07:58:47.997Z,95023.53
2023-04-29T08:01:18.717Z,95011.41
2023-04-29T08:03:47.161Z,95012.47
2023-04-29T08:06:18.386Z,95018.25
2023-04-29T08:08:46.635Z,95025.38
2023-04-29T08:11:18.310Z,95015.06
2023-04-29T08:13:46.513Z,95014.03
2023-04-29T08:16:14.712Z,95018.75
2023-04-29T08:18:44.171Z,95011.34
2023-04-29T08:21:12.479Z,95020.56
2023-04-29T08:23:41.010Z,95021.38
2023-04-29T08:26:10.798Z,95031.44
2023-04-29T08:28:38.734Z,95025.06
2023-04-29T08:31:07.696Z,95024.03
2023-04-29T08:33:35.977Z,95021.69
2023-04-29T08:36:06.033Z,95025.66
2023-04-29T08:38:33.969Z,95028.28
2023-04-29T08:41:02.513Z,95030.41
2023-04-29T08:43:30.998Z,95015.63
2023-04-29T08:46:00.453Z,95022.22
2023-04-29T08:48:29.975Z,95018.78
2023-04-29T08:50:58.514Z,95014.00
2023-04-29T08:53:27.908Z,95007.63
2023-04-29T08:55:56.509Z,95010.00
2023-04-29T08:58:26.609Z,95025.06
2023-04-29T09:00:54.862Z,95027.72
2023-04-29T09:03:28.511Z,95029.28
2023-04-29T09:05:57.474Z,95022.91
2023-04-29T09:08:27.757Z,95022.88
2023-04-29T09:10:56.757Z,95014.94
2023-04-29T09:13:26.389Z,95013.06
2023-04-29T09:15:54.678Z,95005.84
2023-04-29T09:18:45.368Z,95010.56
2023-04-29T09:21:21.097Z,95013.16
2023-04-29T09:23:53.057Z,95013.28
2023-04-29T09:26:22.569Z,95018.00
2023-04-29T09:29:07.651Z,95028.06
2023-04-29T09:31:35.967Z,95030.25
2023-04-29T09:34:04.279Z,95040.81
2023-04-29T09:36:39.998Z,95036.03
2023-04-29T09:39:12.666Z,95038.16
2023-04-29T09:41:42.321Z,95040.31
2023-04-29T09:44:11.817Z,95035.59
2023-04-29T09:46:39.873Z,95039.28
2023-04-29T09:49:26.137Z,95034.00
2023-04-29T09:51:55.995Z,95039.28
2023-04-29T09:54:28.419Z,95034.94
2023-04-29T09:56:57.821Z,95029.03
2023-04-29T09:59:26.539Z,95027.38
2023-04-29T10:01:55.850Z,95030.53
2023-04-29T10:04:26.329Z,95038.47
2023-04-29T10:06:56.229Z,95044.28
2023-04-29T10:09:25.606Z,95043.09
2023-04-29T10:11:54.868Z,95045.53
2023-04-29T10:14:25.762Z,95040.25
2023-04-29T10:17:01.024Z,95049.81
2023-04-29T10:19:36.272Z,95053.00
2023-04-29T10:22:10.123Z,95048.78
2023-04-29T10:24:40.944Z,95047.72
2023-04-29T10:27:09.757Z,95047.22
2023-04-29T10:29:39.224Z,95046.19
2023-04-29T10:32:10.965Z,95049.34
2023-04-29T10:34:40.560Z,95049.88
2023-04-29T10:37:11.393Z,95061.00
2023-04-29T10:39:49.479Z,95054.09
2023-04-29T10:42:27.391Z,95054.06
2023-04-29T10:45:21.090Z,95057.78
2023-04-29T10:48:14.570Z,95069.91
2023-04-29T10:51:02.507Z,95063.03
2023-04-29T10:53:31.170Z,95060.91
2023-04-29T10:56:06.923Z,95059.31
2023-04-29T10:58:39.393Z,95047.66
2023-04-29T11:01:08.529Z,95053.47
2023-04-29T11:04:01.535Z,95042.41
2023-04-29T11:06:42.164Z,95041.06
2023-04-29T11:09:13.782Z,95040.78
2023-04-29T11:11:49.049Z,95041.28
2023-04-29T11:14:24.901Z,95041.75
2023-04-29T11:16:54.693Z,95040.00
2023-04-29T11:19:25.660Z,95038.59
2023-04-29T11:22:30.440Z,95035.25
2023-04-29T11:25:01.713Z,95037.09
2023-04-29T11:27:34.139Z,95030.72
2023-04-29T11:30:05.097Z,95033.41
2023-04-29T11:32:34.836Z,95033.31
2023-04-29T11:35:09.952Z,95035.50
2023-04-29T11:37:39.359Z,95037.09
2023-04-29T11:40:08.841Z,95037.31
2023-04-29T11:42:43.328Z,95034.91
2023-04-29T11:45:12.426Z,95034.09
2023-04-29T11:47:44.910Z,95037.78
2023-04-29T11:50:13.787Z,95043.03
2023-04-29T11:52:41.816Z,95038.56
2023-04-29T11:55:10.673Z,95032.72
2023-04-29T11:57:40.612Z,95032.78
2023-04-29T12:00:11.782Z,95029.59
2023-04-29T12:02:40.331Z,95022.16
2023-04-29T12:05:09.581Z,95027.50
2023-04-29T12:07:38.426Z,95027.06
2023-04-29T12:10:10.294Z,95021.22
2023-04-29T12:12:40.950Z,95024.94
2023-04-29T12:15:11.165Z,95026.50
2023-04-29T12:17:40.048Z,95027.06
2023-04-29T12:20:09.967Z,95024.94
2023-04-29T12:22:37.954Z,95019.88
2023-04-29T12:25:07.325Z,95019.81
2023-04-29T12:27:36.452Z,95025.88
2023-04-29T12:30:08.355Z,95029.25
2023-04-29T12:32:36.941Z,95032.13
2023-04-29T12:35:05.255Z,95027.88
2023-04-29T12:37:34.630Z,95028.44
2023-04-29T12:40:02.575Z,95033.16
2023-04-29T12:42:33.795Z,95038.97
2023-04-29T12:45:01.767Z,95036.88
2023-04-29T12:47:35.077Z,95039.53
2023-04-29T12:50:03.155Z,95040.03
2023-04-29T12:52:31.082Z,95027.59
2023-04-29T12:54:59.042Z,95030.84
2023-04-29T12:57:29.387Z,95031.09
2023-04-29T12:59:57.277Z,95025.34
2023-04-29T13:02:25.241Z,95022.25
2023-04-29T13:04:55.177Z,95034.47
2023-04-29T13:07:23.687Z,95027.06
2023-04-29T13:09:51.782Z,95030.19
2023-04-29T13:12:19.698Z,95031.72
2023-04-29T13:14:47.757Z,95033.81
2023-04-29T13:17:15.992Z,95032.72
2023-04-29T13:19:51.326Z,95032.50
2023-04-29T13:22:21.778Z,95038.03
2023-04-29T13:24:50.138Z,95035.41
2023-04-29T13:27:18.219Z,95040.69
2023-04-29T13:29:46.379Z,95046.47
2023-04-29T13:32:14.513Z,95042.75
2023-04-29T13:34:43.516Z,95040.16
2023-04-29T13:37:11.992Z,95035.91
2023-04-29T13:39:45.348Z,95031.19
2023-04-29T13:42:15.839Z,95032.78
2023-04-29T13:44:52.455Z,95032.25
2023-04-29T13:47:25.954Z,95028.03
2023-04-29T13:53:10.689Z,95032.22
2023-04-29T13:56:07.365Z,95028.00
2023-04-29T14:03:07.555Z,95027.50
2023-04-29T14:05:35.834Z,95022.75
2023-04-29T14:08:03.904Z,95027.50
2023-04-29T14:10:33.211Z,95019.03
2023-04-29T14:13:01.185Z,95013.66
2023-04-29T14:15:29.164Z,95017.63
2023-04-29T14:17:57.137Z,95022.19
2023-04-29T14:20:25.112Z,95008.97
2023-04-29T14:22:53.197Z,95010.50
2023-04-29T14:25:21.136Z,95020.47
2023-04-29T14:27:50.395Z,95012.56
2023-04-29T14:30:18.454Z,95016.28
2023-04-29T14:32:46.498Z,95015.69
2023-04-29T14:35:15.166Z,95017.63
2023-04-29T14:37:43.209Z,95012.16
2023-04-29T14:40:11.631Z,95010.94
2023-04-29T14:42:40.001Z,95005.13
2023-04-29T14:45:10.556Z,95008.19
2023-04-29T14:47:38.893Z,95007.31
2023-04-29T14:50:08.296Z,95006.53
2023-04-29T14:52:36.233Z,95007.31
2023-04-29T14:55:04.688Z,95018.47
2023-04-29T14:57:32.546Z,95014.31
2023-04-29T15:00:01.181Z,95016.41
2023-04-29T15:02:30.502Z,95020.69
2023-04-29T15:04:58.742Z,95018.88
2023-04-29T15:07:28.406Z,95015.19
2023-04-29T15:09:57.280Z,95025.03
2023-04-29T15:12:25.211Z,95022.97
2023-04-29T15:14:53.644Z,95025.09
2023-04-29T15:17:21.694Z,95020.38
2023-04-29T15:19:50.978Z,95014.09
2023-04-29T15:22:19.027Z,95010.91
2023-04-29T15:27:19.822Z,95008.13
2023-04-29T15:29:47.964Z,95007.13
2023-04-29T15:32:16.154Z,95010.25
2023-04-29T15:34:44.132Z,95005.59
2023-04-29T15:37:13.526Z,95005.91
2023-04-29T15:39:41.439Z,94999.88
2023-04-29T15:42:09.553Z,94998.84
2023-04-29T15:44:37.456Z,95001.22
2023-04-29T15:47:05.370Z,95003.63
2023-04-29T15:49:33.418Z,95005.72
2023-04-29T15:52:01.386Z,95005.72
2023-04-29T15:54:30.742Z,95007.44
2023-04-29T15:56:58.654Z,95006.88
2023-04-29T15:59:26.609Z,94994.97
2023-04-29T16:01:54.495Z,94993.94
2023-04-29T16:04:22.456Z,95004.28
2023-04-29T16:06:51.139Z,95002.22
2023-04-29T16:09:19.073Z,95001.66
2023-04-29T16:11:48.452Z,94998.50
2023-04-29T16:14:16.365Z,95000.38
2023-04-29T16:16:44.333Z,94996.94
2023-04-29T16:19:12.461Z,95000.41
2023-04-29T16:21:40.441Z,95004.34
2023-04-29T16:24:08.574Z,94998.00
2023-04-29T16:26:37.404Z,94996.38
2023-04-29T16:29:06.745Z,94992.09
2023-04-29T16:31:34.713Z,94990.19
2023-04-29T16:34:03.385Z,94987.75
2023-04-29T16:36:32.526Z,94987.19
2023-04-29T16:39:00.432Z,94976.13
2023-04-29T16:41:28.401Z,94977.19
2023-04-29T16:43:56.524Z,94967.13
2023-04-29T16:46:26.111Z,94964.41
2023-04-29T16:48:56.825Z,94960.72
2023-04-29T16:51:26.262Z,94960.44
2023-04-29T16:53:54.663Z,94956.16
2023-04-29T16:56:22.779Z,94966.28
2023-04-29T16:58:51.151Z,94958.06
2023-04-29T17:01:19.779Z,94963.91
2023-04-29T17:03:50.147Z,94963.91
2023-04-29T17:06:18.486Z,94954.91
2023-04-29T17:08:47.506Z,94961.50
2023-04-29T17:11:18.280Z,94954.88
2023-04-29T17:13:46.388Z,94957.50
2023-04-29T17:16:14.993Z,94955.47
2023-04-29T17:18:43.055Z,94953.91
2023-04-29T17:21:12.336Z,94947.59
2023-04-29T17:23:40.258Z,94947.84
2023-04-29T17:26:08.249Z,94948.06
2023-04-29T17:28:36.470Z,94950.47
2023-04-29T17:31:06.123Z,94952.84
2023-04-29T17:33:35.518Z,94949.69
2023-04-29T17:36:04.124Z,94953.34
2023-04-29T17:38:34.125Z,94953.34
2023-04-29T17:41:02.861Z,94953.63
2023-04-29T17:43:33.202Z,94952.06
2023-04-29T17:46:01.185Z,94953.13
2023-04-29T17:48:29.109Z,94946.91
2023-04-29T17:50:57.027Z,94950.84
2023-04-29T17:53:24.943Z,94952.34
2023-04-29T17:55:54.206Z,94954.47
2023-04-29T17:58:22.102Z,94960.78
2023-04-29T18:00:50.069Z,94964.97
2023-04-29T18:03:18.105Z,94957.06
2023-04-29T18:05:47.427Z,94955.50
2023-04-29T18:08:15.358Z,94965.03
2023-04-29T18:10:43.276Z,94955.81
2023-04-29T18:13:12.552Z,94954.47
2023-04-29T18:15:40.447Z,94959.28
2023-04-29T18:18:08.739Z,94955.19
2023-04-29T18:20:36.665Z,94955.72
2023-04-29T18:23:04.571Z,94963.13
2023-04-29T18:25:32.511Z,94958.72
2023-04-29T18:28:13.606Z,94953.50
2023-04-29T18:30:50.131Z,94954.31
2023-04-29T18:33:18.143Z,94951.69
2023-04-29T18:35:46.134Z,94954.84
2023-04-29T18:38:17.295Z,94951.72
2023-04-29T18:40:45.565Z,94951.19
2023-04-29T18:43:17.121Z,94950.69
2023-04-29T18:45:45.672Z,94945.72
2023-04-29T18:48:15.126Z,94957.59
2023-04-29T18:50:43.617Z,94951.53
2023-04-29T18:53:11.828Z,94950.25
2023-04-29T18:55:39.818Z,94957.09
2023-04-29T18:58:07.753Z,94955.53
2023-04-29T19:00:35.734Z,94959.22
2023-04-29T19:03:03.710Z,94956.34
2023-04-29T19:05:33.552Z,94960.78
2023-04-29T19:08:01.531Z,94962.38
2023-04-29T19:10:29.461Z,94967.13
2023-04-29T19:12:57.389Z,94974.78
2023-04-29T19:15:27.971Z,94967.59
2023-04-29T19:17:56.345Z,94966.56
2023-04-29T19:20:24.360Z,94963.13
2023-04-29T19:22:53.662Z,94963.41
2023-04-29T19:25:22.059Z,94969.69
2023-04-29T19:27:51.078Z,94973.38
2023-04-29T19:30:19.222Z,94969.69
2023-04-29T19:32:47.419Z,94966.53
2023-04-29T19:35:15.666Z,94964.94
2023-04-29T19:37:44.327Z,94979.16
2023-04-29T19:40:13.884Z,94981.28
2023-04-29T19:42:41.792Z,94982.31
2023-04-29T19:45:12.632Z,94984.44
2023-04-29T19:47:41.119Z,94988.13
2023-04-29T19:50:09.678Z,94985.44
2023-04-29T19:52:37.953Z,94990.72
2023-04-29T19:55:08.632Z,94999.91
2023-04-29T19:57:38.798Z,94993.88
2023-04-29T20:00:09.462Z,95001.81
2023-04-29T20:02:37.529Z,95004.47
2023-04-29T20:05:06.311Z,95005.25
2023-04-29T20:07:34.264Z,95019.19
2023-04-29T20:10:02.176Z,95016.53
2023-04-29T20:12:30.339Z,95020.22
2023-04-29T20:14:59.875Z,95001.78
2023-04-29T20:17:28.372Z,95014.41
2023-04-29T20:19:56.539Z,95013.34
2023-04-29T20:22:24.772Z,95009.13
2023-04-29T20:24:52.687Z,95003.81
2023-04-29T20:27:20.597Z,94999.59
2023-04-29T20:29:48.557Z,94998.53
2023-04-29T20:32:17.955Z,95006.41
2023-04-29T20:34:46.206Z,95000.63
2023-04-29T20:37:14.187Z,95009.31
2023-04-29T20:39:42.078Z,95016.66
2023-04-29T20:42:10.063Z,95018.50
2023-04-29T20:44:38.466Z,95020.09
2023-04-29T20:47:06.755Z,95014.28
2023-04-29T20:49:36.046Z,95016.38
2023-04-29T20:52:06.379Z,95013.19
2023-04-29T20:54:35.041Z,95011.59
2023-04-29T20:57:05.418Z,95010.00
2023-04-29T20:59:33.844Z,95012.09
2023-04-29T21:02:01.769Z,95012.09
2023-04-29T21:04:29.729Z,95015.78
2023-04-29T21:06:59.041Z,95018.84
2023-04-29T21:09:27.030Z,95025.13
2023-04-29T21:11:54.885Z,95025.13
2023-04-29T21:14:22.783Z,95020.66
2023-04-29T21:16:50.708Z,95025.63
2023-04-29T21:19:18.678Z,95023.47
2023-04-29T21:21:46.625Z,95029.84
2023-04-29T21:24:16.008Z,95025.09
2023-04-29T21:26:44.057Z,95021.09
2023-04-29T21:29:12.029Z,95025.03
2023-04-29T21:31:40.074Z,95025.06
2023-04-29T21:34:08.063Z,95019.78
2023-04-29T21:36:35.950Z,95021.88
2023-04-29T21:39:03.950Z,95015.03
2023-04-29T21:41:37.391Z,95013.47
2023-04-29T21:44:07.114Z,95011.34
2023-04-29T21:46:35.791Z,95005.53
2023-04-29T21:49:04.525Z,95006.06
2023-04-29T21:51:32.818Z,95009.19
2023-04-29T21:54:01.073Z,95021.84
2023-04-29T21:56:28.990Z,95006.06
2023-04-29T21:58:58.259Z,95011.31
2023-04-29T22:01:40.516Z,95016.56
2023-04-29T22:04:08.527Z,95019.75
2023-04-29T22:06:36.524Z,95022.38
2023-04-29T22:09:06.611Z,95030.25
2023-04-29T22:11:34.695Z,95031.81
2023-04-29T22:14:04.050Z,95041.78
2023-04-29T22:16:32.363Z,95041.78
2023-04-29T22:19:00.271Z,95042.78
2023-04-29T22:21:29.029Z,95052.22
2023-04-29T22:23:57.017Z,95052.22
2023-04-29T22:26:25.515Z,95053.81
2023-04-29T22:28:53.514Z,95051.72
2023-04-29T22:31:22.932Z,95051.13
2023-04-29T22:33:50.963Z,95063.19
2023-04-29T22:36:18.898Z,95056.91
2023-04-29T22:38:46.886Z,95058.47
2023-04-29T22:41:15.025Z,95055.31
2023-04-29T22:43:42.949Z,95071.88
2023-04-29T22:46:11.101Z,95069.25
2023-04-29T22:48:40.469Z,95071.09
2023-04-29T22:51:08.383Z,95067.66
2023-04-29T22:53:36.307Z,95064.25
2023-04-29T22:56:04.420Z,95055.31
2023-04-29T22:58:33.722Z,95061.09
2023-04-29T23:01:02.019Z,95057.91
2023-04-29T23:03:29.970Z,95048.38
2023-04-29T23:06:00.420Z,95048.88
2023-04-29T23:08:28.549Z,95047.81
2023-04-29T23:10:56.465Z,95040.16
2023-04-29T23:13:24.699Z,95034.13
2023-04-29T23:15:53.268Z,95037.28
2023-04-29T23:18:21.221Z,95036.25
2023-04-29T23:20:49.613Z,95039.38
2023-04-29T23:23:18.931Z,95022.03
2023-04-29T23:25:46.880Z,95029.38
2023-04-29T23:28:14.870Z,95023.78
2023-04-29T23:30:42.983Z,95034.81
2023-04-29T23:33:10.972Z,95029.31
2023-04-29T23:35:38.867Z,95027.47
2023-04-29T23:38:06.785Z,95028.25
2023-04-29T23:40:36.188Z,95030.34
2023-04-29T23:43:04.098Z,95030.06
2023-04-29T23:45:32.010Z,95032.38
2023-04-29T23:47:59.973Z,95021.63
2023-04-29T23:50:27.941Z,95020.75
2023-04-29T23:52:55.907Z,95020.66
2023-04-29T23:55:23.775Z,95024.91
2023-04-29T23:57:53.029Z,95016.28
